createdAt,value
2018-04-25T17:50:42.764Z,58.82
2018-04-25T17:53:08.660Z,58.38
2018-04-25T17:55:34.536Z,59.04
2018-04-25T17:58:00.463Z,58.30
2018-04-25T18:00:26.340Z,58.42
2018-04-25T18:02:52.385Z,60.44
2018-04-25T18:05:18.327Z,59.89
2018-04-25T18:07:44.211Z,58.79
2018-04-25T18:10:10.582Z,60.32
2018-04-25T18:12:36.491Z,61.05
2018-04-25T18:15:02.544Z,62.50
2018-04-25T18:17:29.039Z,60.90
2018-04-25T18:19:55.502Z,61.68
2018-04-25T18:22:21.488Z,62.08
2018-04-25T18:24:47.408Z,61.29
2018-04-25T18:27:13.500Z,61.88
2018-04-25T18:29:39.379Z,62.44
2018-04-25T18:32:05.275Z,62.52
2018-04-25T18:34:31.253Z,62.53
2018-04-25T18:36:57.197Z,63.27
2018-04-25T18:39:23.299Z,64.10
2018-04-25T18:41:49.606Z,64.98
2018-04-25T18:44:15.514Z,68.78
2018-04-25T18:46:42.504Z,66.22
2018-04-25T18:49:08.454Z,67.15
2018-04-25T18:51:34.538Z,66.73
2018-04-25T18:54:01.522Z,66.02
2018-04-25T18:56:31.071Z,65.63
2018-04-25T18:58:57.146Z,64.69
2018-04-25T19:01:23.564Z,66.09
2018-04-25T19:03:50.708Z,66.42
2018-04-25T19:06:16.668Z,66.16
2018-04-25T19:08:42.567Z,67.59
2018-04-25T19:11:08.486Z,67.68
2018-04-25T19:13:34.464Z,66.06
2018-04-25T19:16:00.498Z,67.19
2018-04-25T19:18:26.432Z,68.09
2018-04-25T19:20:56.715Z,72.30
2018-04-25T19:23:22.764Z,70.49
2018-04-25T19:25:49.902Z,70.17
2018-04-25T19:28:15.928Z,73.00
2018-04-25T19:30:41.844Z,73.56
2018-04-25T19:33:09.659Z,75.60
2018-04-25T19:35:35.698Z,75.98
2018-04-25T19:38:01.601Z,77.02
2018-04-25T19:40:31.066Z,76.89
2018-04-25T19:42:58.855Z,78.26
2018-04-25T19:45:25.225Z,78.57
2018-04-25T19:47:51.295Z,78.99
2018-04-25T19:50:17.952Z,79.22
2018-04-25T19:52:45.459Z,79.21
2018-04-25T19:55:12.506Z,78.76
2018-04-25T19:57:39.296Z,79.18
2018-04-25T20:00:05.186Z,79.78
2018-04-25T20:02:34.117Z,79.77
2018-04-25T20:05:00.255Z,79.46
2018-04-25T20:07:26.143Z,79.87
2018-04-25T20:09:52.393Z,80.41
2018-04-25T20:12:18.291Z,81.45
2018-04-25T20:14:44.188Z,81.00
2018-04-25T20:17:10.284Z,81.07
2018-04-25T20:19:36.184Z,80.95
2018-04-25T20:22:02.079Z,80.38
2018-04-25T20:24:28.009Z,81.01
2018-04-25T20:26:53.892Z,81.67
2018-04-25T20:29:19.906Z,81.57
2018-04-25T20:31:45.844Z,82.07
2018-04-25T20:34:11.814Z,81.40
2018-04-25T20:36:37.693Z,82.59
2018-04-25T20:39:03.740Z,82.95
2018-04-25T20:41:29.783Z,82.66
2018-04-25T20:43:55.756Z,81.49
2018-04-25T20:46:21.669Z,81.96
2018-04-25T20:48:47.657Z,82.99
2018-04-25T20:51:13.640Z,82.07
2018-04-25T20:53:39.740Z,83.80
2018-04-25T20:56:05.620Z,82.79
2018-04-25T20:58:31.499Z,83.95
2018-04-25T21:00:57.581Z,84.12
2018-04-25T21:03:23.580Z,83.66
2018-04-25T21:05:49.589Z,83.73
2018-04-25T21:08:15.492Z,84.12
2018-04-25T21:10:41.380Z,83.85
2018-04-25T21:13:07.268Z,82.21
2018-04-25T21:15:33.604Z,83.70
2018-04-25T21:17:59.711Z,83.37
2018-04-25T21:20:25.571Z,84.42
2018-04-25T21:22:52.395Z,83.90
2018-04-25T21:25:18.268Z,84.70
2018-04-25T21:27:44.151Z,84.99
2018-04-25T21:30:10.219Z,84.92
2018-04-25T21:32:36.105Z,85.34
2018-04-25T21:35:02.001Z,85.11
2018-04-25T21:37:27.951Z,85.36
2018-04-25T21:39:53.836Z,86.21
2018-04-25T21:42:19.871Z,85.85
2018-04-25T21:44:45.799Z,85.25
2018-04-25T21:47:11.700Z,85.74
2018-04-25T21:49:37.593Z,85.65
2018-04-25T21:52:03.537Z,85.85
2018-04-25T21:54:29.601Z,85.78
2018-04-25T21:56:55.495Z,85.73
2018-04-25T21:59:21.422Z,85.99
2018-04-25T22:01:47.316Z,85.51
2018-04-25T22:04:13.199Z,85.57
2018-04-25T22:06:39.315Z,85.46
2018-04-25T22:09:05.211Z,86.67
2018-04-25T22:11:31.087Z,86.29
2018-04-25T22:13:57.321Z,86.39
2018-04-25T22:16:23.207Z,86.55
2018-04-25T22:18:50.057Z,86.45
2018-04-25T22:21:16.002Z,86.40
2018-04-25T22:23:41.885Z,85.82
2018-04-25T22:26:07.783Z,86.15
2018-04-25T22:28:33.700Z,86.26
2018-04-25T22:30:59.781Z,86.31
2018-04-25T22:33:25.670Z,87.24
2018-04-25T22:35:51.577Z,87.77
2018-04-25T22:38:17.489Z,87.17
2018-04-25T22:40:43.383Z,86.33
2018-04-25T22:43:09.476Z,87.40
2018-04-25T22:45:35.347Z,87.23
2018-04-25T22:48:01.224Z,85.91
2018-04-25T22:50:27.147Z,86.92
2018-04-25T22:52:53.031Z,86.78
2018-04-25T22:55:19.068Z,86.11
2018-04-25T22:57:44.989Z,84.63
2018-04-25T23:00:10.881Z,83.16
2018-04-25T23:02:36.811Z,83.62
2018-04-25T23:05:02.736Z,84.87
2018-04-25T23:07:28.744Z,84.99
2018-04-25T23:09:54.639Z,85.58
2018-04-25T23:12:20.572Z,85.07
2018-04-25T23:14:46.459Z,84.75
2018-04-25T23:17:12.339Z,84.65
2018-04-25T23:19:38.401Z,85.19
2018-04-25T23:22:04.293Z,85.56
2018-04-25T23:24:30.176Z,85.79
2018-04-25T23:26:56.111Z,86.01
2018-04-25T23:29:22.006Z,85.21
2018-04-25T23:31:48.020Z,85.41
2018-04-25T23:34:13.934Z,85.31
2018-04-25T23:36:39.828Z,85.18
2018-04-25T23:39:05.707Z,85.12
2018-04-25T23:41:31.650Z,85.62
2018-04-25T23:43:57.674Z,85.19
2018-04-25T23:46:23.579Z,85.66
2018-04-25T23:48:49.838Z,85.35
2018-04-25T23:51:15.740Z,84.27
2018-04-25T23:53:41.610Z,84.99
2018-04-25T23:56:07.681Z,85.02
2018-04-25T23:58:33.557Z,85.30
